Terminal Aerodrome Forecast
Issued by NWS

Home | Current Version | Previous Version | Text Only | Print | Product List | Glossary On
Versions: 1 2 3 4 5 6 7 8 9 10 11 12 13 14 15 16 17 18 19 20 21 22 23 24 25
579
FTUS44 KLZK 161927 AAA
TAFLIT
TAF AMD
KLIT 161927Z 1619/1718 17009KT P6SM OVC011
     FM162100 19008G18KT 6SM -RA BR VCTS OVC010CB
     FM170200 20009KT 2SM BR OVC005
     FM170900 28004KT 4SM BR OVC015
     FM171500 29005KT P6SM OVC050=

USA.gov is the U.S. government's official web portal to all federal, state and local government web resources and services.